createdAt,value
2022-08-02T00:00:44.296Z,100198.41
2022-08-02T00:03:47.354Z,100201.44
2022-08-02T00:06:50.121Z,100200.66
2022-08-02T00:09:53.176Z,100203.00
2022-08-02T00:12:55.940Z,100206.37
2022-08-02T00:15:59.291Z,100208.31
2022-08-02T00:19:01.962Z,100204.31
2022-08-02T00:22:05.121Z,100199.75
2022-08-02T00:25:08.096Z,100197.94
2022-08-02T00:28:13.908Z,100197.72
2022-08-02T00:31:17.613Z,100186.69
2022-08-02T00:34:28.906Z,100192.41
2022-08-02T00:37:32.733Z,100195.34
2022-08-02T00:40:35.782Z,100203.47
2022-08-02T00:43:38.486Z,100206.56
2022-08-02T00:46:42.006Z,100209.78
2022-08-02T00:49:44.734Z,100214.38
2022-08-02T00:52:47.722Z,100218.44
2022-08-02T00:55:50.448Z,100219.81
2022-08-02T00:58:53.506Z,100222.97
2022-08-02T01:01:58.352Z,100212.72
2022-08-02T01:05:03.398Z,100213.78
2022-08-02T01:08:07.413Z,100217.84
2022-08-02T01:11:10.434Z,100225.59
2022-08-02T01:14:15.467Z,100227.91
2022-08-02T01:17:44.722Z,100230.03
2022-08-02T01:21:04.941Z,100225.91
2022-08-02T01:24:23.415Z,100234.66
2022-08-02T01:27:55.259Z,100243.78
2022-08-02T01:31:16.692Z,100243.50
2022-08-02T01:34:47.298Z,100251.91
2022-08-02T01:37:57.469Z,100252.72
2022-08-02T01:41:03.623Z,100253.94
2022-08-02T01:44:09.400Z,100251.22
2022-08-02T01:47:18.239Z,100240.00
2022-08-02T01:50:27.712Z,100248.69
2022-08-02T01:53:31.998Z,100248.69
2022-08-02T01:56:36.068Z,100260.41
2022-08-02T01:59:41.102Z,100261.06
2022-08-02T02:02:47.746Z,100261.31
2022-08-02T02:05:52.914Z,100265.19
2022-08-02T02:08:58.031Z,100263.00
2022-08-02T02:12:06.429Z,100260.63
2022-08-02T02:15:16.384Z,100261.41
2022-08-02T02:18:24.492Z,100257.91
2022-08-02T02:21:27.204Z,100264.50
2022-08-02T02:24:30.834Z,100264.31
2022-08-02T02:27:37.026Z,100263.87
2022-08-02T02:30:46.070Z,100249.34
2022-08-02T02:33:59.548Z,100247.78
2022-08-02T02:37:05.160Z,100258.34
2022-08-02T02:40:09.558Z,100256.94
2022-08-02T02:43:14.392Z,100259.28
2022-08-02T02:46:19.515Z,100260.00
2022-08-02T02:49:24.519Z,100256.84
2022-08-02T02:52:27.479Z,100253.28
2022-08-02T02:55:32.154Z,100247.31
2022-08-02T02:58:35.276Z,100256.19
2022-08-02T03:01:56.551Z,100258.38
2022-08-02T03:05:05.328Z,100260.69
2022-08-02T03:08:08.960Z,100266.25
2022-08-02T03:11:12.635Z,100269.12
2022-08-02T03:14:16.620Z,100266.38
2022-08-02T03:17:19.484Z,100263.34
2022-08-02T03:20:25.747Z,100262.09
2022-08-02T03:23:28.863Z,100253.19
2022-08-02T03:26:31.877Z,100255.25
2022-08-02T03:29:34.978Z,100252.81
2022-08-02T03:32:40.097Z,100260.19
2022-08-02T03:35:44.552Z,100265.56
2022-08-02T03:38:48.215Z,100271.78
2022-08-02T03:41:51.486Z,100276.56
2022-08-02T03:44:55.834Z,100280.19
2022-08-02T03:47:59.539Z,100274.69
2022-08-02T03:51:03.724Z,100276.50
2022-08-02T03:54:06.813Z,100281.25
2022-08-02T03:57:10.616Z,100279.62
2022-08-02T04:00:19.505Z,100272.44
2022-08-02T04:03:22.647Z,100286.03
2022-08-02T04:06:27.285Z,100273.59
2022-08-02T04:09:31.616Z,100269.50
2022-08-02T04:12:34.358Z,100282.00
2022-08-02T04:15:38.706Z,100274.84
2022-08-02T04:18:50.605Z,100265.97
2022-08-02T04:21:55.817Z,100279.47
2022-08-02T04:25:02.076Z,100282.53
2022-08-02T04:28:17.260Z,100287.19
2022-08-02T04:31:22.341Z,100281.37
2022-08-02T04:34:25.691Z,100292.22
2022-08-02T04:37:28.578Z,100305.25
2022-08-02T04:40:31.601Z,100305.53
2022-08-02T04:43:34.384Z,100302.13
2022-08-02T04:46:38.057Z,100308.31
2022-08-02T04:49:40.809Z,100315.84
2022-08-02T04:52:45.921Z,100321.69
2022-08-02T04:55:48.707Z,100321.53
2022-08-02T04:58:51.713Z,100320.69
2022-08-02T05:01:54.772Z,100323.31
2022-08-02T05:04:57.948Z,100335.59
2022-08-02T05:08:00.759Z,100333.06
2022-08-02T05:11:03.914Z,100338.22
2022-08-02T05:14:06.737Z,100337.50
2022-08-02T05:17:09.691Z,100338.63
2022-08-02T05:20:15.761Z,100346.31
2022-08-02T05:23:18.717Z,100349.75
2022-08-02T05:26:21.710Z,100337.91
2022-08-02T05:29:24.767Z,100336.63
2022-08-02T05:32:27.462Z,100334.53
2022-08-02T05:35:30.850Z,100338.53
2022-08-02T05:38:37.043Z,100350.06
2022-08-02T05:41:40.628Z,100333.06
2022-08-02T05:44:43.307Z,100352.75
2022-08-02T05:47:46.443Z,100345.13
2022-08-02T05:50:53.729Z,100348.47
2022-08-02T05:54:10.991Z,100348.19
2022-08-02T05:57:35.239Z,100346.38
2022-08-02T06:00:50.315Z,100350.97
2022-08-02T06:03:56.817Z,100354.31
2022-08-02T06:07:07.297Z,100354.31
2022-08-02T06:10:14.971Z,100352.59
2022-08-02T06:13:17.796Z,100358.59
2022-08-02T06:16:32.586Z,100355.28
2022-08-02T06:19:51.448Z,100362.87
2022-08-02T06:22:58.903Z,100359.16
2022-08-02T06:26:03.906Z,100359.41
2022-08-02T06:29:07.853Z,100360.97
2022-08-02T06:32:11.337Z,100355.56
2022-08-02T06:35:14.703Z,100367.56
2022-08-02T06:38:27.583Z,100364.62
2022-08-02T06:41:42.612Z,100365.19
2022-08-02T06:44:51.895Z,100365.91
2022-08-02T06:47:58.519Z,100371.97
2022-08-02T06:51:05.448Z,100370.03
2022-08-02T06:54:08.510Z,100375.72
2022-08-02T06:57:11.241Z,100371.00
2022-08-02T07:00:14.731Z,100362.69
2022-08-02T07:03:18.160Z,100362.28
2022-08-02T07:06:21.110Z,100358.31
2022-08-02T07:09:23.862Z,100353.81
2022-08-02T07:12:27.536Z,100360.25
2022-08-02T07:15:30.407Z,100350.41
2022-08-02T07:18:35.152Z,100356.13
2022-08-02T07:21:57.824Z,100361.00
2022-08-02T07:25:00.890Z,100367.75
2022-08-02T07:28:04.136Z,100355.16
2022-08-02T07:31:07.163Z,100363.94
2022-08-02T07:34:09.948Z,100364.22
2022-08-02T07:37:34.987Z,100359.75
2022-08-02T07:40:37.048Z,100359.41
2022-08-02T07:43:40.085Z,100365.84
2022-08-02T07:46:42.797Z,100362.31
2022-08-02T07:49:45.789Z,100368.97
2022-08-02T07:52:49.596Z,100361.63
2022-08-02T07:56:00.235Z,100357.34
2022-08-02T07:59:03.989Z,100359.19
2022-08-02T08:02:07.132Z,100355.97
2022-08-02T08:05:10.366Z,100349.59
2022-08-02T08:08:17.375Z,100353.25
2022-08-02T08:11:20.908Z,100355.94
2022-08-02T08:14:23.645Z,100350.91
2022-08-02T08:17:27.037Z,100351.44
2022-08-02T08:20:29.732Z,100351.38
2022-08-02T08:23:32.938Z,100352.19
2022-08-02T08:26:35.639Z,100354.75
2022-08-02T08:29:38.526Z,100363.97
2022-08-02T08:32:41.263Z,100357.66
2022-08-02T08:35:44.258Z,100368.25
2022-08-02T08:38:48.022Z,100362.03
2022-08-02T08:41:51.433Z,100363.78
2022-08-02T08:44:57.318Z,100368.06
2022-08-02T08:48:06.696Z,100370.50
2022-08-02T08:51:16.826Z,100376.00
2022-08-02T08:54:24.622Z,100370.75
2022-08-02T08:57:30.280Z,100376.28
2022-08-02T09:00:35.764Z,100374.69
2022-08-02T09:03:38.469Z,100382.28
2022-08-02T09:06:41.645Z,100392.94
2022-08-02T09:09:44.330Z,100389.63
2022-08-02T09:13:37.504Z,100393.53
2022-08-02T09:16:40.886Z,100389.06
2022-08-02T09:19:45.746Z,100389.81
2022-08-02T09:23:09.240Z,100385.94
2022-08-02T09:26:14.534Z,100381.19
2022-08-02T09:29:18.631Z,100381.44
2022-08-02T09:32:24.590Z,100378.66
2022-08-02T09:36:05.978Z,100372.28
2022-08-02T09:38:58.942Z,100382.47
2022-08-02T09:42:10.984Z,100377.25
2022-08-02T09:45:14.380Z,100371.47
2022-08-02T09:48:17.149Z,100385.03
2022-08-02T09:51:29.371Z,100365.31
2022-08-02T09:54:33.148Z,100360.25
2022-08-02T09:57:38.839Z,100368.38
2022-08-02T10:00:56.358Z,100351.22
2022-08-02T10:04:01.772Z,100353.62
2022-08-02T10:07:05.215Z,100353.41
2022-08-02T10:10:08.940Z,100361.94
2022-08-02T10:13:11.815Z,100351.88
2022-08-02T10:16:24.920Z,100349.63
2022-08-02T10:20:03.475Z,100350.06
2022-08-02T10:22:51.782Z,100342.31
2022-08-02T10:26:00.260Z,100343.13
2022-08-02T10:29:03.591Z,100326.00
2022-08-02T10:32:11.133Z,100321.91
2022-08-02T10:35:26.009Z,100330.78
2022-08-02T10:38:29.891Z,100325.63
2022-08-02T10:41:51.852Z,100311.28
2022-08-02T10:45:10.427Z,100316.25
2022-08-02T10:48:14.833Z,100320.03
2022-08-02T10:51:17.621Z,100312.69
2022-08-02T10:54:32.410Z,100322.88
2022-08-02T10:57:38.109Z,100326.84
2022-08-02T11:00:41.169Z,100322.13
2022-08-02T11:03:45.240Z,100317.63
2022-08-02T11:07:14.387Z,100314.19
2022-08-02T11:10:39.644Z,100327.69
2022-08-02T11:14:02.609Z,100319.63
2022-08-02T11:17:17.288Z,100324.06
2022-08-02T11:20:22.341Z,100329.06
2022-08-02T11:23:44.861Z,100315.09
2022-08-02T11:26:51.285Z,100320.50
2022-08-02T11:29:53.931Z,100307.87
2022-08-02T11:32:58.572Z,100311.97
2022-08-02T11:36:03.947Z,100308.00
2022-08-02T11:39:15.910Z,100302.22
2022-08-02T11:42:18.843Z,100316.69
2022-08-02T11:45:29.752Z,100308.03
2022-08-02T11:48:32.712Z,100314.56
2022-08-02T11:51:35.766Z,100309.78
2022-08-02T11:54:40.954Z,100308.00
2022-08-02T11:58:04.553Z,100302.75
2022-08-02T12:01:06.906Z,100301.87
2022-08-02T12:04:10.458Z,100303.59
2022-08-02T12:07:14.929Z,100304.97
2022-08-02T12:10:24.272Z,100308.28
2022-08-02T12:13:26.924Z,100297.03
2022-08-02T12:16:55.177Z,100301.25
2022-08-02T12:19:59.195Z,100305.37
2022-08-02T12:23:05.610Z,100307.31
2022-08-02T12:26:15.922Z,100294.53
2022-08-02T12:29:55.719Z,100284.28
2022-08-02T12:33:12.969Z,100283.22
2022-08-02T12:36:24.641Z,100276.62
2022-08-02T12:39:43.259Z,100283.25
2022-08-02T12:42:51.919Z,100278.06
2022-08-02T12:45:58.701Z,100277.22
2022-08-02T12:49:17.491Z,100267.59
2022-08-02T12:52:22.796Z,100277.25
2022-08-02T12:56:01.905Z,100284.19
2022-08-02T12:58:52.238Z,100276.31
2022-08-02T13:02:02.286Z,100276.84
2022-08-02T13:05:05.876Z,100259.81
2022-08-02T13:08:08.912Z,100259.06
2022-08-02T13:11:11.674Z,100263.56
2022-08-02T13:14:16.192Z,100274.22
2022-08-02T13:17:19.112Z,100276.66
2022-08-02T13:20:22.107Z,100287.41
2022-08-02T13:23:54.291Z,100271.41
2022-08-02T13:26:50.100Z,100270.03
2022-08-02T13:29:54.314Z,100270.00
2022-08-02T13:33:00.963Z,100276.72
2022-08-02T13:36:05.043Z,100268.97
2022-08-02T13:39:12.900Z,100277.13
2022-08-02T13:42:16.876Z,100277.78
2022-08-02T13:45:20.293Z,100270.19
2022-08-02T13:48:26.682Z,100268.94
2022-08-02T13:51:29.768Z,100269.69
2022-08-02T13:54:32.804Z,100268.84
2022-08-02T13:57:35.807Z,100245.00
2022-08-02T14:00:38.585Z,100258.91
2022-08-02T14:04:08.965Z,100236.19
2022-08-02T14:07:06.229Z,100242.56
2022-08-02T14:10:09.856Z,100241.31
2022-08-02T14:13:12.640Z,100242.03
2022-08-02T14:16:15.816Z,100231.69
2022-08-02T14:19:18.565Z,100233.41
2022-08-02T14:22:22.080Z,100227.47
2022-08-02T14:25:26.214Z,100235.03
2022-08-02T14:28:30.551Z,100237.97
2022-08-02T14:31:33.293Z,100243.34
2022-08-02T14:34:36.152Z,100239.97
2022-08-02T14:37:38.878Z,100227.72
2022-08-02T14:40:42.881Z,100238.62
2022-08-02T14:44:04.085Z,100227.16
2022-08-02T14:47:07.091Z,100228.16
2022-08-02T14:50:11.268Z,100226.28
2022-08-02T14:53:14.391Z,100223.47
2022-08-02T14:56:17.089Z,100224.44
2022-08-02T14:59:22.106Z,100218.66
2022-08-02T15:02:26.442Z,100220.47
2022-08-02T15:05:29.422Z,100222.00
2022-08-02T15:08:32.163Z,100220.94
2022-08-02T15:11:48.350Z,100223.44
2022-08-02T15:14:52.467Z,100218.16
2022-08-02T15:17:56.720Z,100217.91
2022-08-02T15:20:59.409Z,100211.56
2022-08-02T15:24:02.407Z,100229.66
2022-08-02T15:27:05.043Z,100229.31
2022-08-02T15:30:09.158Z,100221.97
2022-08-02T15:33:12.787Z,100220.13
2022-08-02T15:36:16.945Z,100228.19
2022-08-02T15:39:19.831Z,100221.19
2022-08-02T15:42:30.234Z,100220.47
2022-08-02T15:45:35.359Z,100223.78
2022-08-02T15:48:39.454Z,100222.19
2022-08-02T15:51:42.008Z,100220.03
2022-08-02T15:54:44.972Z,100225.59
2022-08-02T15:57:47.684Z,100225.44
2022-08-02T16:00:50.790Z,100231.66
2022-08-02T16:03:53.858Z,100220.00
2022-08-02T16:06:57.534Z,100230.09
2022-08-02T16:10:04.944Z,100237.28
2022-08-02T16:13:26.032Z,100228.28
2022-08-02T16:16:31.959Z,100230.87
2022-08-02T16:19:49.130Z,100237.31
2022-08-02T16:22:53.518Z,100236.47
2022-08-02T16:25:56.179Z,100234.25
2022-08-02T16:29:00.632Z,100235.75
2022-08-02T16:32:04.312Z,100234.63
2022-08-02T16:35:09.189Z,100247.25
2022-08-02T16:38:12.140Z,100241.78
2022-08-02T16:41:16.372Z,100242.78
2022-08-02T16:44:27.611Z,100238.28
2022-08-02T16:47:43.466Z,100245.19
2022-08-02T16:50:56.229Z,100238.72
2022-08-02T16:54:01.138Z,100236.97
2022-08-02T16:57:05.230Z,100244.66
2022-08-02T17:00:10.361Z,100240.37
2022-08-02T17:03:14.311Z,100247.88
2022-08-02T17:06:18.346Z,100241.25
2022-08-02T17:10:03.410Z,100247.31
2022-08-02T17:12:44.525Z,100253.41
2022-08-02T17:16:16.499Z,100263.09
2022-08-02T17:19:18.071Z,100250.69
2022-08-02T17:22:20.873Z,100258.56
2022-08-02T17:25:24.772Z,100268.31
2022-08-02T17:28:31.430Z,100267.22
2022-08-02T17:31:42.908Z,100273.72
2022-08-02T17:34:56.364Z,100274.69
2022-08-02T17:38:03.113Z,100276.12
2022-08-02T17:41:15.283Z,100276.41
2022-08-02T17:44:37.215Z,100285.03
2022-08-02T17:47:42.008Z,100278.81
2022-08-02T17:50:48.851Z,100282.56
2022-08-02T17:53:51.694Z,100290.53
2022-08-02T17:56:54.944Z,100291.06
2022-08-02T18:00:03.595Z,100286.69
2022-08-02T18:03:07.898Z,100297.25
2022-08-02T18:06:13.328Z,100296.00
2022-08-02T18:09:17.677Z,100291.31
2022-08-02T18:12:21.014Z,100294.16
2022-08-02T18:15:23.798Z,100303.19
2022-08-02T18:18:29.682Z,100301.53
2022-08-02T18:21:33.106Z,100309.25
2022-08-02T18:24:37.584Z,100305.81
2022-08-02T18:27:41.944Z,100300.91
2022-08-02T18:30:46.101Z,100307.53
2022-08-02T18:33:58.636Z,100310.06
2022-08-02T18:37:04.801Z,100308.97
2022-08-02T18:40:09.985Z,100315.75
2022-08-02T18:43:14.391Z,100314.81
2022-08-02T18:46:21.095Z,100315.41
2022-08-02T18:49:30.094Z,100321.25
2022-08-02T18:52:54.240Z,100318.87
2022-08-02T18:56:03.231Z,100329.06
2022-08-02T18:59:07.754Z,100330.66
2022-08-02T19:02:11.473Z,100330.94
2022-08-02T19:05:14.552Z,100331.56
2022-08-02T19:08:18.620Z,100332.47
2022-08-02T19:11:21.609Z,100334.66
2022-08-02T19:14:27.728Z,100337.34
2022-08-02T19:17:53.872Z,100337.78
2022-08-02T19:20:58.237Z,100344.66
2022-08-02T19:24:04.836Z,100342.47
2022-08-02T19:27:13.814Z,100342.56
2022-08-02T19:30:18.948Z,100345.84
2022-08-02T19:34:06.711Z,100350.09
2022-08-02T19:36:48.800Z,100350.03
2022-08-02T19:39:52.397Z,100357.53
2022-08-02T19:44:24.725Z,100348.19
2022-08-02T19:46:23.118Z,100347.31
2022-08-02T19:49:39.921Z,100355.78
2022-08-02T19:52:47.417Z,100362.34
2022-08-02T19:55:59.802Z,100354.72
2022-08-02T19:59:13.390Z,100351.50
2022-08-02T20:02:18.410Z,100357.72
2022-08-02T20:05:24.024Z,100352.97
2022-08-02T20:08:31.627Z,100359.56
2022-08-02T20:11:41.605Z,100359.44
2022-08-02T20:14:51.301Z,100358.41
2022-08-02T20:17:54.650Z,100362.81
2022-08-02T20:20:58.669Z,100358.87
2022-08-02T20:24:03.477Z,100355.81
2022-08-02T20:27:16.322Z,100364.88
2022-08-02T20:30:20.255Z,100363.28
2022-08-02T20:33:29.359Z,100366.78
2022-08-02T20:36:34.788Z,100380.97
2022-08-02T20:39:43.114Z,100381.69
2022-08-02T20:42:47.962Z,100375.06
2022-08-02T20:45:51.241Z,100365.47
2022-08-02T20:48:55.245Z,100374.50
2022-08-02T20:52:02.179Z,100372.69
2022-08-02T20:55:05.642Z,100369.56
2022-08-02T20:58:11.829Z,100373.69
2022-08-02T21:01:15.003Z,100367.53
2022-08-02T21:04:19.240Z,100367.00
2022-08-02T21:07:25.603Z,100373.06
2022-08-02T21:10:29.677Z,100372.41
2022-08-02T21:13:32.842Z,100376.13
2022-08-02T21:16:35.977Z,100376.81
2022-08-02T21:19:44.339Z,100369.13
2022-08-02T21:22:47.067Z,100366.78
2022-08-02T21:25:57.406Z,100375.06
2022-08-02T21:29:03.465Z,100366.91
2022-08-02T21:32:07.384Z,100363.78
2022-08-02T21:35:10.869Z,100377.03
2022-08-02T21:38:35.159Z,100367.34
2022-08-02T21:41:46.210Z,100367.25
2022-08-02T21:44:51.493Z,100372.19
2022-08-02T21:47:54.043Z,100371.69
2022-08-02T21:50:58.614Z,100370.66
2022-08-02T21:54:17.407Z,100373.72
2022-08-02T21:57:23.219Z,100380.50
2022-08-02T22:00:28.791Z,100373.06
2022-08-02T22:03:32.640Z,100369.28
2022-08-02T22:06:35.745Z,100380.19
2022-08-02T22:09:43.340Z,100370.41
2022-08-02T22:12:48.281Z,100379.66
2022-08-02T22:15:51.386Z,100382.97
2022-08-02T22:18:55.088Z,100376.84
2022-08-02T22:22:00.600Z,100390.66
2022-08-02T22:25:04.207Z,100387.53
2022-08-02T22:28:37.714Z,100387.41
2022-08-02T22:31:40.831Z,100394.13
2022-08-02T22:34:52.100Z,100395.47
2022-08-02T22:38:14.569Z,100387.34
2022-08-02T22:41:22.701Z,100390.63
2022-08-02T22:44:25.319Z,100387.88
2022-08-02T22:47:28.286Z,100390.16
2022-08-02T22:50:41.406Z,100386.72
2022-08-02T22:53:45.559Z,100399.03
2022-08-02T22:56:48.206Z,100407.28
2022-08-02T22:59:51.584Z,100404.53
2022-08-02T23:02:55.558Z,100404.69
2022-08-02T23:05:58.629Z,100398.78
2022-08-02T23:09:01.297Z,100399.34
2022-08-02T23:12:04.795Z,100397.53
2022-08-02T23:15:09.217Z,100406.31
2022-08-02T23:18:30.857Z,100404.47
2022-08-02T23:22:01.391Z,100405.88
2022-08-02T23:24:56.661Z,100402.69
2022-08-02T23:27:59.347Z,100402.91
2022-08-02T23:31:28.864Z,100407.72
2022-08-02T23:34:31.484Z,100394.06
2022-08-02T23:38:00.276Z,100394.06
2022-08-02T23:40:58.099Z,100402.50
2022-08-02T23:44:13.493Z,100402.22
2022-08-02T23:47:17.459Z,100398.56
2022-08-02T23:50:20.688Z,100393.78
2022-08-02T23:53:23.309Z,100401.84
2022-08-02T23:56:26.306Z,100396.66
2022-08-02T23:59:29.942Z,100396.78
